createdAt,value
2023-05-20T00:01:50.404Z,987.4
2023-05-20T00:03:51.803Z,987.3
2023-05-20T00:07:54.620Z,987.4
2023-05-20T00:09:56.171Z,987.4
2023-05-20T00:13:58.869Z,987.4
2023-05-20T00:18:01.912Z,987.2
2023-05-20T00:20:03.295Z,987.2
2023-05-20T00:24:06.396Z,987.2
2023-05-20T00:26:08.175Z,987.2
2023-05-20T00:30:11.336Z,987.3
2023-05-20T00:34:14.534Z,987.2
2023-05-20T00:36:15.577Z,987.1
2023-05-20T00:38:17.304Z,987.2
2023-05-20T00:40:18.461Z,987.2
2023-05-20T00:44:21.204Z,987.1
2023-05-20T00:46:22.953Z,987.1
2023-05-20T00:48:24.057Z,987.1
2023-05-20T00:50:25.861Z,987
2023-05-20T00:52:27.174Z,987.1
2023-05-20T00:56:30.081Z,987
2023-05-20T00:58:31.868Z,987
2023-05-20T01:00:32.816Z,987
2023-05-20T01:02:33.833Z,987
2023-05-20T01:06:36.379Z,987
2023-05-20T01:08:37.682Z,987
2023-05-20T01:12:41.139Z,986.9
2023-05-20T01:16:44.055Z,986.8
2023-05-20T01:18:45.732Z,986.9
2023-05-20T01:22:48.920Z,986.8
2023-05-20T01:26:51.672Z,986.7
2023-05-20T01:28:52.976Z,986.8
2023-05-20T01:32:56.164Z,986.8
2023-05-20T01:34:57.952Z,986.8
2023-05-20T01:39:00.073Z,986.8
2023-05-20T01:43:03.622Z,986.8
2023-05-20T01:45:05.289Z,986.8
2023-05-20T01:49:08.252Z,986.7
2023-05-20T01:51:09.805Z,986.7
2023-05-20T01:55:12.081Z,986.7
2023-05-20T01:59:13.982Z,986.7
2023-05-20T02:01:15.337Z,986.7
2023-05-20T02:05:27.066Z,986.8
2023-05-20T02:09:21.703Z,986.7
2023-05-20T02:11:22.681Z,986.8
2023-05-20T02:15:25.006Z,986.8
2023-05-20T02:17:26.742Z,986.7
2023-05-20T02:21:30.452Z,986.6
2023-05-20T02:25:33.630Z,986.6
2023-05-20T02:27:34.910Z,986.5
2023-05-20T02:31:38.243Z,986.6
2023-05-20T02:33:40.073Z,986.5
2023-05-20T02:37:43.043Z,986.6
2023-05-20T02:41:46.582Z,986.5
2023-05-20T02:43:48.015Z,986.5
2023-05-20T02:47:50.305Z,986.5
2023-05-20T02:51:52.726Z,986.5
2023-05-20T02:53:53.860Z,986.5
2023-05-20T02:57:56.924Z,986.4
2023-05-20T02:59:58.424Z,986.4
2023-05-20T03:04:01.477Z,986.4
2023-05-20T03:08:03.544Z,986.4
2023-05-20T03:10:05.429Z,986.3
2023-05-20T03:14:07.474Z,986.4
2023-05-20T03:16:09.316Z,986.3
2023-05-20T03:20:12.055Z,986.4
2023-05-20T03:24:14.741Z,986.4
2023-05-20T03:26:15.810Z,986.4
2023-05-20T03:30:18.892Z,986.4
2023-05-20T03:32:20.235Z,986.4
2023-05-20T03:36:22.497Z,986.3
2023-05-20T03:40:33.923Z,986.5
2023-05-20T03:42:26.322Z,986.5
2023-05-20T03:46:29.813Z,986.5
2023-05-20T03:50:33.167Z,986.6
2023-05-20T03:52:34.776Z,986.5
2023-05-20T03:56:38.085Z,986.5
2023-05-20T03:58:39.208Z,986.5
2023-05-20T04:02:41.504Z,986.6
2023-05-20T04:06:43.913Z,986.6
2023-05-20T04:08:45.082Z,986.6
2023-05-20T04:12:47.774Z,986.5
2023-05-20T04:14:49.465Z,986.5
2023-05-20T04:18:52.830Z,986.5
2023-05-20T04:22:55.007Z,986.5
2023-05-20T04:24:56.575Z,986.5
2023-05-20T04:28:59.613Z,986.4
2023-05-20T04:33:02.859Z,986.5
2023-05-20T04:35:04.505Z,986.6
2023-05-20T04:39:06.931Z,986.5
2023-05-20T04:41:08.362Z,986.5
2023-05-20T04:45:10.481Z,986.4
2023-05-20T04:49:13.483Z,986.4
2023-05-20T04:51:15.182Z,986.4
2023-05-20T04:55:17.647Z,986.4
2023-05-20T04:57:19.270Z,986.4
2023-05-20T05:01:21.688Z,986.4
2023-05-20T05:05:23.651Z,986.4
2023-05-20T05:07:25.033Z,986.4
2023-05-20T05:11:27.997Z,986.3
2023-05-20T05:15:30.736Z,986.3
2023-05-20T05:17:32.544Z,986.3
2023-05-20T05:21:34.657Z,986.1
2023-05-20T05:23:35.634Z,986.1
2023-05-20T05:25:37.214Z,986.2
2023-05-20T05:27:38.664Z,986.1
2023-05-20T05:31:41.970Z,986.1
2023-05-20T05:33:42.962Z,986
2023-05-20T05:37:45.725Z,986
2023-05-20T05:39:46.822Z,986
2023-05-20T05:43:49.046Z,986
2023-05-20T05:45:50.296Z,986
2023-05-20T05:47:51.299Z,986.1
2023-05-20T05:49:52.838Z,986.1
2023-05-20T05:53:55.728Z,986.1
2023-05-20T05:55:56.937Z,986.1
2023-05-20T05:59:59.344Z,986.1
2023-05-20T06:04:01.382Z,986.1
2023-05-20T06:06:03.141Z,986
2023-05-20T06:10:06.090Z,986
2023-05-20T06:14:08.528Z,986
2023-05-20T06:16:09.405Z,986
2023-05-20T06:20:12.460Z,986
2023-05-20T06:22:13.958Z,986.1
2023-05-20T06:24:59.038Z,985.9
2023-05-20T06:27:00.032Z,985.9
2023-05-20T06:31:02.536Z,985.8
2023-05-20T06:33:04.102Z,985.8
2023-05-20T06:37:07.228Z,985.9
2023-05-20T06:41:09.799Z,985.9
2023-05-20T06:43:12.291Z,985.9
2023-05-20T06:47:14.227Z,985.8
2023-05-20T06:51:16.124Z,985.8
2023-05-20T06:53:17.110Z,985.7
2023-05-20T06:57:20.383Z,985.8
2023-05-20T06:59:21.320Z,985.8
2023-05-20T07:03:23.813Z,985.8
2023-05-20T07:07:25.787Z,985.7
2023-05-20T07:09:27.103Z,985.7
2023-05-20T07:13:29.407Z,985.6
2023-05-20T07:15:30.733Z,985.6
2023-05-20T07:19:33.572Z,985.6
2023-05-20T07:23:35.851Z,985.5
2023-05-20T07:25:37.057Z,985.6
2023-05-20T07:29:39.792Z,985.4
2023-05-20T07:35:44.303Z,985.3
2023-05-20T07:39:47.215Z,985.4
2023-05-20T07:41:49.909Z,985.4
2023-05-20T07:45:52.250Z,985.5
2023-05-20T07:49:54.542Z,985.4
2023-05-20T07:51:56.227Z,985.4
2023-05-20T07:55:58.360Z,985.3
2023-05-20T07:57:59.799Z,985.3
2023-05-20T08:02:02.310Z,985.3
2023-05-20T08:06:05.399Z,985.4
2023-05-20T08:08:06.865Z,985.4
2023-05-20T08:12:09.414Z,985.4
2023-05-20T08:14:10.462Z,985.3
2023-05-20T08:18:12.444Z,985.2
2023-05-20T08:22:14.310Z,985.2
2023-05-20T08:24:15.559Z,985.2
2023-05-20T08:28:18.411Z,985.2
2023-05-20T08:32:20.970Z,985.2
2023-05-20T08:34:22.534Z,985.1
2023-05-20T08:38:25.513Z,985.1
2023-05-20T08:40:26.486Z,985.1
2023-05-20T08:44:29.292Z,985.2
2023-05-20T08:48:32.527Z,985.1
2023-05-20T08:50:33.708Z,985.1
2023-05-20T08:54:36.430Z,985.2
2023-05-20T08:56:39.029Z,985.3
2023-05-20T09:00:41.679Z,985.2
2023-05-20T09:04:43.999Z,985.3
2023-05-20T09:06:45.142Z,985.2
2023-05-20T09:10:46.741Z,985.2
2023-05-20T09:14:49.220Z,985.2
2023-05-20T09:16:50.315Z,985.3
2023-05-20T09:20:52.948Z,985.3
2023-05-20T09:22:55.408Z,985.3
2023-05-20T09:24:56.788Z,985.3
2023-05-20T09:26:58.477Z,985.2
2023-05-20T09:31:01.874Z,985.3
2023-05-20T09:33:03.298Z,985.2
2023-05-20T09:37:06.163Z,985.3
2023-05-20T09:39:07.069Z,985.2
2023-05-20T09:43:10.167Z,985
2023-05-20T09:47:12.354Z,985.1
2023-05-20T09:49:13.747Z,985.1
2023-05-20T09:53:24.424Z,985
2023-05-20T09:59:20.009Z,984.9
2023-05-20T10:03:22.257Z,984.9
2023-05-20T10:05:23.343Z,985
2023-05-20T10:09:25.505Z,984.9
2023-05-20T10:13:27.307Z,984.8
2023-05-20T10:15:28.592Z,984.8
2023-05-20T10:19:30.783Z,984.8
2023-05-20T10:21:41.012Z,984.7
2023-05-20T10:25:35.205Z,984.8
2023-05-20T10:29:38.031Z,984.8
2023-05-20T10:31:38.891Z,984.7
2023-05-20T10:35:41.423Z,984.5
2023-05-20T10:37:42.933Z,984.6
2023-05-20T10:41:45.905Z,984.7
2023-05-20T10:45:48.279Z,984.6
2023-05-20T10:47:49.190Z,984.6
2023-05-20T10:51:52.468Z,984.6
2023-05-20T10:55:55.570Z,984.5
2023-05-20T10:57:57.151Z,984.6
2023-05-20T11:02:00.586Z,984.4
2023-05-20T11:04:02.305Z,984.5
2023-05-20T11:08:06.106Z,984.5
2023-05-20T11:12:06.404Z,984.3
2023-05-20T11:14:07.291Z,984.3
2023-05-20T11:18:10.305Z,984.4
2023-05-20T11:20:11.057Z,984.3
2023-05-20T11:24:14.757Z,984.2
2023-05-20T11:28:17.277Z,984.2
2023-05-20T11:30:18.379Z,984.2
2023-05-20T11:34:22.257Z,984.1
2023-05-20T11:36:27.668Z,984.2
2023-05-20T11:38:23.551Z,984.1
2023-05-20T11:40:28.640Z,984.1
2023-05-20T11:44:28.820Z,984.1
2023-05-20T11:46:30.910Z,984
2023-05-20T11:48:33.054Z,984.1
2023-05-20T11:52:36.298Z,984
2023-05-20T11:56:39.138Z,984
2023-05-20T12:00:50.501Z,984
2023-05-20T12:02:44.372Z,984
2023-05-20T12:06:46.724Z,984
2023-05-20T12:10:50.389Z,983.9
2023-05-20T12:12:51.510Z,983.9
2023-05-20T12:16:55.227Z,984
2023-05-20T12:18:56.106Z,983.9
2023-05-20T12:22:58.406Z,983.9
2023-05-20T12:27:00.399Z,983.9
2023-05-20T12:29:02.730Z,983.8
2023-05-20T12:33:05.847Z,983.8
2023-05-20T12:35:07.311Z,983.7
2023-05-20T12:39:10.320Z,983.7
2023-05-20T12:43:22.911Z,983.7
2023-05-20T12:45:13.685Z,983.7
2023-05-20T12:49:16.174Z,983.7
2023-05-20T12:55:20.407Z,983.6
2023-05-20T12:59:23.162Z,983.6
2023-05-20T13:01:25.367Z,983.6
2023-05-20T13:03:27.581Z,983.6
2023-05-20T13:05:28.958Z,983.5
2023-05-20T13:08:13.822Z,983.6
2023-05-20T13:10:14.968Z,983.6
2023-05-20T13:12:16.103Z,983.5
2023-05-20T13:16:18.719Z,983.5
2023-05-20T13:20:21.911Z,983.5
2023-05-20T13:22:23.513Z,983.5
2023-05-20T13:26:25.602Z,983.5
2023-05-20T13:28:27.161Z,983.5
2023-05-20T13:32:38.983Z,983.6
2023-05-20T13:36:31.126Z,983.4
2023-05-20T13:38:32.090Z,983.4
2023-05-20T13:42:33.883Z,983.4
2023-05-20T13:46:36.386Z,983.4
2023-05-20T13:48:37.293Z,983.3
2023-05-20T13:52:39.833Z,983.2
2023-05-20T13:54:42.181Z,983.2
2023-05-20T13:58:44.601Z,983.2
2023-05-20T14:02:46.889Z,983.2
2023-05-20T14:04:48.153Z,983.1
2023-05-20T14:08:49.857Z,983.2
2023-05-20T14:10:50.958Z,983.2
2023-05-20T14:15:03.326Z,983.1
2023-05-20T14:18:54.949Z,983
2023-05-20T14:20:55.935Z,983
2023-05-20T14:24:59.167Z,983
2023-05-20T14:31:02.669Z,983
2023-05-20T14:35:05.448Z,983
2023-05-20T14:37:08.201Z,982.9
2023-05-20T14:39:10.008Z,982.9
2023-05-20T14:41:11.561Z,982.9
2023-05-20T14:45:13.747Z,982.7
2023-05-20T14:47:22.723Z,982.7
2023-05-20T14:51:18.190Z,982.8
2023-05-20T14:53:19.558Z,982.7
2023-05-20T14:57:21.994Z,982.7
2023-05-20T15:01:24.959Z,982.8
2023-05-20T15:03:26.447Z,982.8
2023-05-20T15:07:29.518Z,982.8
2023-05-20T15:09:30.680Z,982.6
2023-05-20T15:11:40.050Z,982.8
2023-05-20T15:13:33.164Z,982.7
2023-05-20T15:17:36.068Z,982.6
2023-05-20T15:19:37.916Z,982.6
2023-05-20T15:23:39.907Z,982.5
2023-05-20T15:27:42.712Z,982.5
2023-05-20T15:29:44.770Z,982.5
2023-05-20T15:33:47.442Z,982.5
2023-05-20T15:35:48.879Z,982.5
2023-05-20T15:39:52.153Z,982.5
2023-05-20T15:43:54.950Z,982.6
2023-05-20T15:45:55.890Z,982.5
2023-05-20T15:49:57.979Z,982.5
2023-05-20T15:52:03.388Z,982.5
2023-05-20T15:56:01.419Z,982.5
2023-05-20T16:00:03.730Z,982.6
2023-05-20T16:02:13.798Z,982.6
2023-05-20T16:06:07.755Z,982.6
2023-05-20T16:10:10.196Z,982.6
2023-05-20T16:12:11.510Z,982.7
2023-05-20T16:16:14.264Z,982.7
2023-05-20T16:18:15.485Z,982.7
2023-05-20T16:22:18.792Z,982.7
2023-05-20T16:26:21.825Z,982.7
2023-05-20T16:28:22.943Z,982.6
2023-05-20T16:32:25.384Z,982.7
2023-05-20T16:34:26.453Z,982.7
2023-05-20T16:38:28.774Z,982.7
2023-05-20T16:42:31.678Z,982.7
2023-05-20T16:44:32.996Z,982.7
2023-05-20T16:48:43.301Z,982.7
2023-05-20T16:50:36.386Z,982.8
2023-05-20T16:54:39.625Z,982.7
2023-05-20T16:58:42.079Z,982.6
2023-05-20T17:00:43.488Z,982.7
2023-05-20T17:04:45.343Z,982.6
2023-05-20T17:08:47.869Z,982.6
2023-05-20T17:10:48.743Z,982.7
2023-05-20T17:14:51.085Z,982.7
2023-05-20T17:16:52.693Z,982.8
2023-05-20T17:20:55.963Z,982.7
2023-05-20T17:24:58.828Z,982.7
2023-05-20T17:27:00.285Z,982.7
2023-05-20T17:31:03.132Z,982.7
2023-05-20T17:33:04.950Z,982.6
2023-05-20T17:37:08.204Z,982.6
2023-05-20T17:41:11.092Z,982.6
2023-05-20T17:43:11.995Z,982.8
2023-05-20T17:47:14.095Z,982.6
2023-05-20T17:51:16.500Z,982.8
2023-05-20T17:53:19.701Z,982.8
2023-05-20T17:57:21.086Z,982.8
2023-05-20T17:59:22.220Z,982.9
2023-05-20T18:03:25.238Z,983
2023-05-20T18:07:27.163Z,983
2023-05-20T18:09:28.003Z,983
2023-05-20T18:13:30.247Z,983
2023-05-20T18:15:31.539Z,983.1
2023-05-20T18:19:34.306Z,983.1
2023-05-20T18:23:36.835Z,983
2023-05-20T18:25:38.974Z,983.1
2023-05-20T18:29:40.861Z,983.1
2023-05-20T18:33:43.427Z,983.1
2023-05-20T18:35:44.622Z,983.1
2023-05-20T18:39:47.188Z,983
2023-05-20T18:41:48.139Z,982.9
2023-05-20T18:43:49.800Z,982.9
2023-05-20T18:45:50.770Z,983.1
2023-05-20T18:49:53.709Z,982.9
2023-05-20T18:51:54.939Z,982.9
2023-05-20T18:53:56.722Z,983
2023-05-20T18:55:57.654Z,982.9
2023-05-20T18:57:58.932Z,983
2023-05-20T19:02:10.401Z,983.1
2023-05-20T19:06:04.938Z,983
2023-05-20T19:08:06.755Z,983
2023-05-20T19:12:09.178Z,983.1
2023-05-20T19:14:10.812Z,983.1
2023-05-20T19:18:13.282Z,983.1
2023-05-20T19:22:15.410Z,983.1
2023-05-20T19:24:16.611Z,983.2
2023-05-20T19:28:19.040Z,983.2
2023-05-20T19:32:21.689Z,983.2
2023-05-20T19:34:22.643Z,983.3
2023-05-20T19:38:25.504Z,983.1
2023-05-20T19:40:26.548Z,983.2
2023-05-20T19:44:28.697Z,983.1
2023-05-20T19:48:31.422Z,983.3
2023-05-20T19:50:32.460Z,983.3
2023-05-20T19:55:18.593Z,983.1
2023-05-20T19:59:22.197Z,983.2
2023-05-20T20:01:23.277Z,983.1
2023-05-20T20:05:25.543Z,983.2
2023-05-20T20:09:28.308Z,983.2
2023-05-20T20:11:29.990Z,983.1
2023-05-20T20:15:33.453Z,983.2
2023-05-20T20:17:35.231Z,983.2
2023-05-20T20:19:36.806Z,983.2
2023-05-20T20:21:38.611Z,983.2
2023-05-20T20:25:42.029Z,983.2
2023-05-20T20:27:43.422Z,983.2
2023-05-20T20:31:46.012Z,983.1
2023-05-20T20:33:47.002Z,983.1
2023-05-20T20:37:50.057Z,983.2
2023-05-20T20:41:52.818Z,983.1
2023-05-20T20:43:54.376Z,983.2
2023-05-20T20:47:56.835Z,983.3
2023-05-20T20:54:01.510Z,983.2
2023-05-20T20:58:05.111Z,983.2
2023-05-20T21:00:06.589Z,983.3
2023-05-20T21:02:07.656Z,983.2
2023-05-20T21:04:08.943Z,983.1
2023-05-20T21:08:12.205Z,983.2
2023-05-20T21:10:13.215Z,983.2
2023-05-20T21:14:15.722Z,983.1
2023-05-20T21:16:16.720Z,983.1
2023-05-20T21:20:21.437Z,983.1
2023-05-20T21:24:23.868Z,983
2023-05-20T21:26:24.920Z,983.1
2023-05-20T21:30:27.275Z,983
2023-05-20T21:32:28.846Z,983
2023-05-20T21:36:31.119Z,983
2023-05-20T21:40:34.190Z,983
2023-05-20T21:42:35.161Z,983
2023-05-20T21:46:38.204Z,983
2023-05-20T21:50:40.297Z,983
2023-05-20T21:52:41.622Z,982.9
2023-05-20T21:56:44.803Z,982.8
2023-05-20T21:58:46.073Z,982.9
2023-05-20T22:02:48.472Z,982.8
2023-05-20T22:06:51.227Z,982.8
2023-05-20T22:08:52.586Z,982.9
2023-05-20T22:12:54.828Z,982.9
2023-05-20T22:14:56.228Z,982.7
2023-05-20T22:18:59.537Z,982.8
2023-05-20T22:23:02.333Z,982.8
2023-05-20T22:25:04.181Z,982.6
2023-05-20T22:29:06.682Z,982.6
2023-05-20T22:33:09.842Z,982.6
2023-05-20T22:35:11.323Z,982.6
2023-05-20T22:39:14.295Z,982.5
2023-05-20T22:41:15.190Z,982.5
2023-05-20T22:43:16.163Z,982.6
2023-05-20T22:45:17.042Z,982.5
2023-05-20T22:49:19.592Z,982.5
2023-05-20T22:51:20.800Z,982.5
2023-05-20T22:53:22.551Z,982.5
2023-05-20T22:55:23.462Z,982.4
2023-05-20T22:57:25.159Z,982.4
2023-05-20T23:01:27.855Z,982.5
2023-05-20T23:03:29.166Z,982.4
2023-05-20T23:05:30.801Z,982.4
2023-05-20T23:07:32.321Z,982.4
2023-05-20T23:11:34.469Z,982.3
2023-05-20T23:13:35.775Z,982.4
2023-05-20T23:17:37.663Z,982.3
2023-05-20T23:21:40.596Z,982.3
2023-05-20T23:23:41.676Z,982.3
2023-05-20T23:27:44.869Z,982.3
2023-05-20T23:31:48.771Z,982.2
2023-05-20T23:33:48.973Z,982.2
2023-05-20T23:37:51.626Z,982.3
2023-05-20T23:39:52.706Z,982.3
2023-05-20T23:43:55.498Z,982.2
2023-05-20T23:47:58.720Z,982.2
2023-05-20T23:49:59.658Z,982.2
2023-05-20T23:54:02.253Z,982.1
2023-05-20T23:56:03.830Z,982
